Time;durP1;ratioP1;P1;durP2;ratioP2;P2;SDS_P1;SDS_P2;PMS_P1;PMS_P2;Temp;Humidity;BMP_temperature;BMP_pressure;BME280_temperature;BME280_humidity;BME280_pressure;Samples;Min_cycle;Max_cycle;Signal;HPM_P1;HPM_P2
2021/07/05 00:01:43;;;;;;;8.52;4.32;;;14.40;99.90;;;15.59;98.64;99925.06;6280560;22;20008;-88
2021/07/05 00:16:12;;;;;;;7.03;4.95;;;14.30;99.90;;;15.60;98.92;99906.16;6281740;22;20022;-90
2021/07/05 00:18:38;;;;;;;5.57;4.35;;;14.30;99.90;;;15.60;99.08;99904.16;6280321;22;20038;-87
2021/07/05 00:21:04;;;;;;;4.90;4.40;;;14.30;99.90;;;15.58;98.88;99905.75;6280741;22;20386;-89
2021/07/05 00:23:30;;;;;;;5.53;4.78;;;14.30;99.90;;;15.61;99.05;99905.75;6281425;22;20008;-89
2021/07/05 00:25:56;;;;;;;6.72;5.38;;;14.30;99.90;;;15.57;99.07;99907.00;6280909;22;20015;-86
2021/07/05 00:28:22;;;;;;;6.57;4.35;;;14.40;99.90;;;15.65;98.34;99911.38;6255028;22;20016;-87
2021/07/05 00:30:47;;;;;;;5.50;4.35;;;14.40;99.90;;;15.63;98.74;99908.16;6280809;22;20055;-89
2021/07/05 00:33:13;;;;;;;5.13;4.43;;;14.40;99.90;;;15.57;98.97;99915.44;6280044;22;20342;-88
2021/07/05 00:35:40;;;;;;;8.60;5.00;;;14.40;99.90;;;15.59;98.64;99924.25;6280393;22;20187;-88
2021/07/05 00:38:06;;;;;;;6.78;4.20;;;14.40;99.90;;;15.65;98.32;99914.19;6279854;22;20004;-89
2021/07/05 00:40:34;;;;;;;7.05;4.85;;;14.50;99.90;;;15.68;98.58;99919.78;6281518;22;20020;-85
2021/07/05 00:43:01;;;;;;;6.63;4.75;;;14.50;99.90;;;15.73;98.05;99918.56;6282380;22;20065;-89
2021/07/05 00:45:31;;;;;;;5.38;4.20;;;14.50;99.90;;;15.81;97.76;99920.13;6282015;22;20027;-86
2021/07/05 00:47:57;;;;;;;6.40;4.90;;;14.50;99.90;;;15.71;98.11;99913.34;6283448;22;20022;-88
2021/07/05 00:50:27;;;;;;;4.70;4.18;;;14.50;99.90;;;15.71;98.18;99906.91;6282608;22;20003;-88
2021/07/05 00:52:58;;;;;;;5.55;4.07;;;14.50;99.90;;;15.74;97.90;99904.06;6281037;22;20065;-89
2021/07/05 04:50:02;;;;;;;3.60;2.10;;;16.30;99.90;;;17.79;93.77;99788.31;6290269;22;20027;-90
2021/07/05 04:52:28;;;;;;;3.33;2.15;;;16.30;99.90;;;17.76;93.78;99789.16;6259109;22;20003;-91
2021/07/05 04:54:54;;;;;;;3.55;1.88;;;16.30;99.90;;;17.78;93.80;99784.72;6255513;22;20049;-92
2021/07/05 04:57:20;;;;;;;4.13;1.92;;;16.30;99.90;;;17.71;93.76;99779.16;6254287;22;20105;-91
2021/07/05 04:59:51;;;;;;;3.03;2.15;;;16.30;99.90;;;17.79;93.68;99780.63;6277530;22;20008;-92
2021/07/05 05:02:23;;;;;;;2.20;1.70;;;16.30;99.90;;;17.87;93.49;99776.47;6255643;22;20086;-93
2021/07/05 05:04:58;;;;;;;3.08;1.58;;;16.40;99.90;;;17.85;93.54;99772.50;6259411;22;20012;-92
2021/07/05 05:07:24;;;;;;;6.03;1.73;;;16.40;99.90;;;17.88;93.64;99786.53;6258721;22;20004;-93
2021/07/05 05:10:00;;;;;;;;;;;;;;;;;;;;;
2021/07/05 06:22:50;;;;;;;3.22;1.25;;;14.20;99.90;;;15.48;98.68;99895.34;6263556;23;20050;-91
2021/07/05 06:25:16;;;;;;;3.97;1.02;;;14.20;99.90;;;15.44;98.06;99891.75;6286529;22;20004;-93
2021/07/05 06:27:46;;;;;;;1.88;0.90;;;14.20;99.90;;;15.36;98.47;99882.53;6254155;23;20453;-91
2021/07/05 06:30:17;;;;;;;2.95;1.30;;;14.10;99.90;;;15.55;98.54;99882.06;6255173;23;20024;-91
2021/07/05 06:37:52;;;;;;;;;;;;;;;;;;;;;
2021/07/05 06:41:32;;;;;;;;;;;;;;;;;;;;;
2021/07/05 06:44:02;;;;;;;4.75;1.77;;;14.20;99.90;;;15.67;95.39;99892.03;6250134;23;20032;-93
2021/07/05 06:47:11;;;;;;;2.25;1.27;;;14.20;99.90;;;15.68;95.29;99916.97;6252502;23;20004;-90
2021/07/05 06:50:31;;;;;;;;;;;;;;;;;;;;;
2021/07/05 06:53:35;;;;;;;3.42;0.95;;;14.20;99.90;;;15.59;96.81;99913.00;6251832;22;20039;-90
2021/07/05 18:16:53;;;;;;;30.60;20.35;;;22.30;99.90;;;25.23;56.69;99767.69;6250313;23;20024;-84
2021/07/05 18:19:22;;;;;;;99.88;48.30;;;23.20;99.90;;;25.81;57.91;99773.88;6248802;23;20070;-84
2021/07/05 18:22:29;;;;;;;111.63;64.57;;;23.50;99.90;;;25.99;56.08;99768.06;6218550;23;20047;-88
2021/07/05 19:14:31;;;;;;;1.92;0.70;;;19.30;99.90;;;20.84;77.22;99726.47;6235334;23;20025;-88
2021/07/05 19:16:57;;;;;;;0.90;0.63;;;19.30;99.90;;;20.80;77.33;99722.97;6274919;22;20016;-88
2021/07/05 19:19:23;;;;;;;2.13;1.02;;;19.20;99.90;;;20.74;77.78;99736.91;6276119;22;20008;-86
2021/07/05 19:21:49;;;;;;;0.80;0.70;;;19.10;99.90;;;20.63;78.89;99744.94;6275264;22;20450;-86
2021/07/05 19:24:17;;;;;;;1.35;0.90;;;19.10;99.90;;;20.61;78.98;99733.25;6252928;23;20000;-86
2021/07/05 19:26:43;;;;;;;1.02;0.88;;;19.00;99.90;;;20.60;79.10;99733.69;6250631;23;20096;-88
2021/07/05 19:29:10;;;;;;;0.95;0.70;;;19.00;99.90;;;20.56;79.22;99735.81;6251064;23;20004;-90
2021/07/05 19:31:42;;;;;;;2.17;1.10;;;18.90;99.90;;;20.48;79.70;99733.16;6254065;22;20338;-88
2021/07/05 19:34:09;;;;;;;2.08;1.00;;;18.90;99.90;;;20.52;79.67;99735.13;6252292;23;20001;-86
2021/07/05 19:36:36;;;;;;;1.92;0.90;;;18.90;99.90;;;20.48;80.01;99730.31;6254575;22;20004;-87
2021/07/05 19:39:05;;;;;;;2.47;1.05;;;18.90;99.90;;;20.42;80.66;99737.78;6252792;23;20008;-88
2021/07/05 19:41:32;;;;;;;0.70;0.65;;;18.90;99.90;;;20.41;80.48;99735.41;6265599;23;20008;-83
2021/07/05 19:43:59;;;;;;;1.95;1.00;;;18.80;99.90;;;20.40;80.47;99740.28;6269914;22;20008;-84
2021/07/05 19:46:25;;;;;;;1.58;1.00;;;18.80;99.90;;;20.40;80.85;99742.31;6272169;22;20020;-85
2021/07/05 19:48:52;;;;;;;2.03;1.40;;;18.80;99.90;;;20.40;81.12;99745.16;6269136;23;19996;-84
2021/07/05 19:51:18;;;;;;;1.20;0.88;;;18.70;99.90;;;20.39;81.58;99735.84;6271492;22;20063;-86
2021/07/05 19:53:44;;;;;;;2.00;1.23;;;18.80;99.90;;;20.40;81.46;99748.00;6266588;22;20019;-87
2021/07/05 19:56:10;;;;;;;1.15;0.90;;;18.80;99.90;;;20.39;81.61;99747.19;6256720;23;20008;-85
2021/07/05 19:58:36;;;;;;;2.53;1.02;;;18.80;99.90;;;20.33;82.72;99731.16;6257831;23;20050;-89
2021/07/05 20:01:03;;;;;;;2.28;1.08;;;18.80;99.90;;;20.35;82.44;99729.50;6257618;23;20031;-87
2021/07/05 20:03:32;;;;;;;1.35;1.08;;;18.80;99.90;;;20.43;81.73;99741.44;6257530;23;20004;-87
2021/07/05 20:06:00;;;;;;;2.25;1.08;;;18.90;99.90;;;20.45;81.47;99736.13;6256393;23;20000;-89
2021/07/05 20:08:28;;;;;;;1.00;0.90;;;18.90;99.90;;;20.50;81.20;99744.88;6253718;23;20008;-89
2021/07/05 20:10:55;;;;;;;1.77;1.23;;;18.90;99.90;;;20.46;81.20;99747.00;6256278;23;20509;-85
2021/07/05 20:13:21;;;;;;;3.40;1.23;;;19.00;99.90;;;20.57;81.08;99743.88;6260021;23;20445;-88
2021/07/05 20:15:47;;;;;;;2.92;1.38;;;19.00;99.90;;;20.58;81.25;99745.47;6259965;23;20014;-86
2021/07/05 20:18:13;;;;;;;2.13;1.52;;;19.00;99.90;;;20.61;81.08;99738.13;6258787;23;20012;-86
2021/07/05 20:20:43;;;;;;;3.47;1.58;;;19.00;99.90;;;20.59;81.15;99747.06;6266735;23;20008;-85
2021/07/05 20:23:14;;;;;;;2.28;1.35;;;19.00;99.90;;;20.55;81.85;99734.22;6252882;23;20015;-88
2021/07/05 20:25:40;;;;;;;2.15;1.33;;;19.00;99.90;;;20.54;82.24;99729.78;6249682;23;20004;-84
2021/07/05 20:28:07;;;;;;;2.55;1.33;;;19.00;99.90;;;20.52;82.32;99730.22;6248926;23;20015;-87
2021/07/05 20:30:35;;;;;;;2.95;1.38;;;19.00;99.90;;;20.50;82.75;99725.03;6249279;23;20019;-85
2021/07/05 20:33:01;;;;;;;2.53;1.63;;;18.90;99.90;;;20.50;82.79;99722.19;6249337;23;20402;-86
2021/07/05 20:35:28;;;;;;;2.25;1.85;;;19.00;99.90;;;20.47;82.98;99723.09;6249405;23;20008;-86
2021/07/05 20:37:54;;;;;;;3.03;1.67;;;18.90;99.90;;;20.48;83.12;99732.41;6250398;23;20099;-88
2021/07/05 20:40:22;;;;;;;2.25;1.75;;;18.90;99.90;;;20.52;82.99;99742.38;6253392;23;20475;-86
2021/07/05 20:42:49;;;;;;;2.58;1.58;;;18.90;99.90;;;20.52;83.05;99733.06;6251516;23;20011;-85
2021/07/05 20:45:23;;;;;;;4.40;1.63;;;18.90;99.90;;;20.48;83.43;99724.66;6250579;23;20052;-84
2021/07/05 20:47:52;;;;;;;3.15;2.10;;;18.90;99.90;;;20.42;83.77;99720.78;6250395;23;20012;-87
2021/07/05 20:50:19;;;;;;;2.90;2.10;;;18.90;99.90;;;20.55;82.95;99711.53;6249782;23;20012;-87
2021/07/05 20:52:47;;;;;;;2.88;1.50;;;19.00;99.90;;;20.58;83.02;99722.75;6250444;23;20055;-84
2021/07/05 20:55:15;;;;;;;3.10;1.63;;;19.00;99.90;;;20.54;83.13;99710.75;6250916;23;20004;-87
2021/07/05 20:57:41;;;;;;;1.95;1.58;;;19.00;99.90;;;20.48;83.36;99709.69;6252454;23;20004;-90
2021/07/05 21:00:12;;;;;;;3.05;1.60;;;19.00;99.90;;;20.52;83.33;99712.44;6252006;23;20338;-88
2021/07/05 21:02:39;;;;;;;1.60;1.20;;;19.00;99.90;;;20.46;83.94;99712.97;6250991;23;20020;-89
2021/07/05 21:05:07;;;;;;;4.78;1.30;;;19.00;99.90;;;20.46;83.89;99709.34;6251691;23;20038;-87
2021/07/05 21:07:33;;;;;;;2.08;1.15;;;19.00;99.90;;;20.44;83.98;99704.13;6253897;23;20019;-89
2021/07/05 21:09:58;;;;;;;2.92;1.45;;;19.00;99.90;;;20.47;84.22;99697.56;6252289;23;20040;-86
2021/07/05 21:12:25;;;;;;;2.20;1.52;;;18.90;99.90;;;20.44;84.45;99692.78;6251786;23;20062;-83
2021/07/05 21:14:51;;;;;;;1.85;1.50;;;18.90;99.90;;;20.42;84.50;99703.75;6252060;23;20012;-88
2021/07/05 21:17:20;;;;;;;1.85;1.40;;;18.90;99.90;;;20.40;84.65;99705.47;6252101;23;20004;-85
2021/07/05 21:19:49;;;;;;;2.63;1.50;;;18.80;99.90;;;20.19;85.90;99709.66;6251974;23;20008;-85
2021/07/05 21:22:18;;;;;;;1.67;1.30;;;18.80;99.90;;;20.25;85.79;99707.06;6253335;23;20015;-87
2021/07/05 21:24:45;;;;;;;3.95;1.88;;;18.70;99.90;;;20.20;86.14;99694.22;6252334;23;20079;-88
2021/07/05 21:27:12;;;;;;;1.95;1.30;;;18.70;99.90;;;20.29;85.77;99691.56;6250377;23;20016;-87
2021/07/05 21:29:39;;;;;;;2.17;1.40;;;18.70;99.90;;;20.30;85.92;99692.38;6252333;23;20008;-88
2021/07/05 21:32:07;;;;;;;2.00;1.52;;;18.70;99.90;;;20.29;86.30;99693.63;6252226;23;20012;-86
2021/07/05 21:34:34;;;;;;;2.78;1.20;;;18.70;99.90;;;20.20;86.82;99691.38;6254757;22;20007;-87
2021/07/05 21:37:02;;;;;;;3.38;1.38;;;18.80;99.90;;;20.18;87.46;99690.25;6255391;23;20012;-87
2021/07/05 21:39:28;;;;;;;1.70;1.60;;;18.80;99.90;;;20.15;87.88;99685.47;6252857;23;20008;-85
2021/07/05 21:41:54;;;;;;;1.50;1.20;;;18.80;99.90;;;20.16;87.75;99690.72;6252768;23;20011;-87
2021/07/05 21:44:21;;;;;;;1.30;1.17;;;18.80;99.90;;;19.99;89.20;99697.63;6252744;23;20023;-87
2021/07/05 21:46:48;;;;;;;2.15;1.30;;;18.80;99.90;;;20.08;88.70;99694.97;6252513;23;20027;-86
2021/07/05 21:49:16;;;;;;;1.10;1.00;;;18.80;99.90;;;20.19;88.06;99691.84;6249272;23;20036;-86
2021/07/05 21:51:42;;;;;;;1.35;1.20;;;18.80;99.90;;;20.10;88.81;99691.69;6250515;23;20004;-88
2021/07/05 21:54:08;;;;;;;1.45;1.33;;;18.80;99.90;;;20.11;88.62;99696.91;6249728;23;20004;-87
2021/07/05 21:56:34;;;;;;;1.20;1.10;;;18.80;99.90;;;20.17;88.53;99692.28;6251544;23;20084;-87
2021/07/05 21:59:00;;;;;;;2.40;1.13;;;18.80;99.90;;;20.31;87.89;99697.59;6250559;23;20350;-84
2021/07/05 22:01:26;;;;;;;1.42;1.00;;;18.80;99.90;;;20.21;88.00;99687.31;6249458;23;20011;-85
2021/07/05 22:03:51;;;;;;;1.35;1.20;;;18.80;99.90;;;20.25;88.14;99693.69;6250866;23;20101;-84
2021/07/05 22:06:18;;;;;;;3.17;1.20;;;18.90;99.90;;;20.29;88.26;99694.41;6249347;23;20034;-82
2021/07/05 22:08:45;;;;;;;1.30;0.90;;;18.90;99.90;;;20.34;87.76;99698.75;6251154;23;20008;-86
2021/07/05 22:11:11;;;;;;;3.65;1.10;;;19.00;99.90;;;20.30;88.01;99704.50;6250026;23;20086;-85
2021/07/05 22:13:39;;;;;;;3.45;0.90;;;19.00;99.90;;;20.32;87.77;99699.22;6249757;23;20015;-88
2021/07/05 22:16:06;;;;;;;1.50;1.00;;;19.00;99.90;;;20.37;87.63;99695.00;6248967;23;20055;-88
2021/07/05 22:18:34;;;;;;;1.08;0.98;;;19.10;99.90;;;20.31;87.84;99702.47;6251156;23;20455;-84
2021/07/05 22:21:01;;;;;;;0.98;0.90;;;19.00;99.90;;;20.32;87.48;99687.88;6250901;23;20114;-86
2021/07/05 22:23:27;;;;;;;3.70;1.00;;;19.10;99.90;;;20.31;87.82;99693.97;6249586;23;20008;-85
2021/07/05 22:25:53;;;;;;;2.20;1.00;;;19.00;99.90;;;20.21;88.30;99695.03;6249709;23;20012;-90
2021/07/05 22:28:23;;;;;;;1.15;1.05;;;19.00;99.90;;;20.27;88.12;99688.38;6249342;23;20070;-86
2021/07/05 22:30:50;;;;;;;2.45;1.05;;;19.10;99.90;;;20.44;86.83;99687.09;6251666;22;20381;-86
2021/07/05 22:33:16;;;;;;;0.90;0.73;;;19.00;99.90;;;20.30;87.53;99687.50;6248775;23;20008;-85
2021/07/05 22:35:41;;;;;;;1.35;0.93;;;19.00;99.90;;;20.27;87.43;99684.75;6257431;23;20004;-85
2021/07/05 22:38:07;;;;;;;1.27;0.82;;;19.00;99.90;;;20.31;87.21;99683.44;6261858;23;20015;-86
2021/07/05 22:40:34;;;;;;;2.63;1.13;;;19.00;99.90;;;20.34;87.06;99679.69;6251872;23;20008;-88
2021/07/05 22:42:59;;;;;;;1.13;1.00;;;19.00;99.90;;;20.25;87.46;99682.34;6253881;23;20016;-87
2021/07/05 22:45:25;;;;;;;1.10;0.70;;;19.00;99.90;;;20.35;87.17;99689.00;6251011;23;20055;-85
2021/07/05 22:47:53;;;;;;;1.55;0.73;;;19.00;99.90;;;20.36;86.70;99682.06;6249032;23;20012;-86
2021/07/05 22:50:19;;;;;;;2.05;0.95;;;19.00;99.90;;;20.39;86.58;99686.84;6251215;22;20004;-86
2021/07/05 22:52:46;;;;;;;5.78;0.93;;;19.00;99.90;;;20.41;86.22;99682.34;6252999;23;20008;-85
2021/07/05 22:55:13;;;;;;;1.02;0.88;;;19.00;99.90;;;20.34;86.66;99678.88;6255853;23;20000;-88
2021/07/05 22:57:40;;;;;;;1.40;0.80;;;19.00;99.90;;;20.41;85.67;99676.66;6255276;23;20004;-85
2021/07/05 23:00:32;;;;;;;1.63;0.95;;;19.00;99.90;;;20.42;86.14;99657.63;6250350;22;20058;-84
2021/07/05 23:03:03;;;;;;;1.67;0.90;;;19.00;99.90;;;20.37;85.98;99655.31;6248455;23;20072;-86
2021/07/05 23:05:30;;;;;;;2.97;0.90;;;18.90;99.90;;;20.37;86.09;99647.59;6247708;23;20015;-85
2021/07/05 23:08:02;;;;;;;1.80;0.70;;;18.90;99.90;;;20.33;85.99;99648.94;6248599;23;20012;-84
2021/07/05 23:10:38;;;;;;;0.90;0.80;;;18.90;99.90;;;20.36;85.84;99646.00;6250862;22;20106;-86
2021/07/05 23:13:08;;;;;;;2.80;0.90;;;18.90;99.90;;;20.35;85.80;99635.94;6249393;23;20087;-84
2021/07/05 23:15:39;;;;;;;1.00;0.90;;;18.90;99.90;;;20.35;85.71;99647.25;6248576;23;20264;-85
2021/07/05 23:18:05;;;;;;;1.00;0.90;;;18.90;99.90;;;20.31;85.40;99645.75;6249100;23;20015;-86
2021/07/05 23:20:38;;;;;;;1.33;0.77;;;18.90;99.90;;;20.31;85.54;99640.88;6250112;23;20004;-86
2021/07/05 23:23:06;;;;;;;1.77;0.80;;;18.90;99.90;;;20.31;85.23;99625.91;6249234;23;20008;-84
2021/07/05 23:25:35;;;;;;;1.80;1.00;;;18.90;99.90;;;20.33;85.17;99606.41;6249872;23;20328;-88
2021/07/05 23:28:05;;;;;;;1.48;0.98;;;18.80;99.90;;;20.18;85.40;99597.50;6249833;23;20012;-86
2021/07/05 23:30:33;;;;;;;0.63;0.63;;;18.80;99.90;;;20.27;85.12;99602.53;6250746;23;20018;-90
2021/07/05 23:32:59;;;;;;;1.73;0.90;;;18.80;99.90;;;20.27;85.30;99611.84;6251117;23;20012;-91
2021/07/05 23:35:26;;;;;;;3.50;1.15;;;18.90;99.90;;;20.23;85.56;99615.97;6253618;23;20174;-91
2021/07/05 23:37:53;;;;;;;0.70;0.63;;;18.80;99.90;;;20.18;85.90;99610.88;6249797;23;20004;-86
2021/07/05 23:40:27;;;;;;;0.60;0.60;;;18.80;99.90;;;20.21;86.03;99612.81;6248881;23;20004;-84
2021/07/05 23:42:53;;;;;;;1.25;0.75;;;18.80;99.90;;;20.27;85.85;99614.66;6249060;23;20012;-87
2021/07/05 23:45:19;;;;;;;2.08;0.95;;;18.80;99.90;;;20.14;86.45;99622.31;6248177;23;20008;-88
2021/07/05 23:47:46;;;;;;;5.10;1.10;;;18.80;99.90;;;20.27;86.36;99614.66;6248636;23;20004;-85
2021/07/05 23:50:16;;;;;;;2.08;1.10;;;18.80;99.90;;;20.26;86.56;99623.63;6248984;23;20019;-86
2021/07/05 23:52:47;;;;;;;2.88;0.95;;;18.80;99.90;;;20.18;87.44;99620.16;6248742;23;20012;-83
2021/07/05 23:55:19;;;;;;;1.00;0.90;;;18.80;99.90;;;20.22;87.34;99618.03;6249142;23;20008;-83
2021/07/05 23:57:46;;;;;;;2.67;1.15;;;18.80;99.90;;;20.23;87.42;99622.44;6248934;23;20001;-84
